createdAt,value
2023-05-20T00:00:24.700Z,98911.35
2023-05-20T00:02:52.248Z,98909.37
2023-05-20T00:05:19.843Z,98908.66
2023-05-20T00:07:47.676Z,98902.90
2023-05-20T00:10:15.462Z,98905.82
2023-05-20T00:12:42.894Z,98904.73
2023-05-20T00:15:12.471Z,98900.59
2023-05-20T00:17:39.948Z,98902.05
2023-05-20T00:20:08.816Z,98900.45
2023-05-20T00:22:36.277Z,98897.02
2023-05-20T00:25:03.907Z,98901.77
2023-05-20T00:27:31.344Z,98899.34
2023-05-20T00:29:58.894Z,98894.19
2023-05-20T00:32:26.963Z,98892.52
2023-05-20T00:34:58.760Z,98890.88
2023-05-20T00:37:26.921Z,98885.50
2023-05-20T00:39:54.456Z,98880.45
2023-05-20T00:42:22.440Z,98874.13
2023-05-20T00:44:49.930Z,98878.35
2023-05-20T00:47:18.200Z,98867.34
2023-05-20T00:49:47.582Z,98866.01
2023-05-20T00:52:19.533Z,98865.30
2023-05-20T00:54:47.032Z,98869.48
2023-05-20T00:57:14.953Z,98864.24
2023-05-20T00:59:44.674Z,98867.88
2023-05-20T01:02:12.465Z,98867.90
2023-05-20T01:04:39.947Z,98863.90
2023-05-20T01:07:07.580Z,98864.60
2023-05-20T01:09:35.091Z,98863.37
2023-05-20T01:12:09.593Z,98863.52
2023-05-20T01:14:41.189Z,98865.00
2023-05-20T01:17:11.474Z,98864.30
2023-05-20T01:19:44.355Z,98866.10
2023-05-20T01:22:13.620Z,98860.46
2023-05-20T01:24:45.546Z,98861.43
2023-05-20T01:27:13.935Z,98861.66
2023-05-20T01:29:42.681Z,98857.86
2023-05-20T01:32:12.499Z,98863.34
2023-05-20T01:34:39.988Z,98863.19
2023-05-20T01:37:07.429Z,98867.72
2023-05-20T01:39:37.994Z,98865.60
2023-05-20T01:42:06.013Z,98868.11
2023-05-20T01:44:33.556Z,98863.30
2023-05-20T01:47:02.226Z,98857.13
2023-05-20T01:49:29.723Z,98854.80
2023-05-20T01:51:57.810Z,98849.93
2023-05-20T01:54:25.825Z,98852.45
2023-05-20T01:56:54.032Z,98856.48
2023-05-20T01:59:23.282Z,98852.33
2023-05-20T02:01:51.409Z,98854.48
2023-05-20T02:04:19.569Z,98853.80
2023-05-20T02:06:47.052Z,98852.05
2023-05-20T02:09:15.515Z,98851.99
2023-05-20T02:11:43.228Z,98852.94
2023-05-20T02:14:10.830Z,98855.66
2023-05-20T02:16:39.209Z,98855.48
2023-05-20T02:19:06.839Z,98852.99
2023-05-20T02:21:35.751Z,98849.91
2023-05-20T02:24:03.487Z,98853.91
2023-05-20T02:26:31.351Z,98857.73
2023-05-20T02:28:58.868Z,98852.52
2023-05-20T02:31:26.450Z,98853.40
2023-05-20T02:33:53.912Z,98851.23
2023-05-20T02:36:21.647Z,98852.37
2023-05-20T02:38:49.203Z,98853.63
2023-05-20T02:41:16.679Z,98855.30
2023-05-20T02:43:45.562Z,98854.02
2023-05-20T02:46:12.994Z,98855.84
2023-05-20T02:48:40.847Z,98853.73
2023-05-20T02:51:08.499Z,98849.23
2023-05-20T02:53:35.961Z,98855.01
2023-05-20T02:56:08.940Z,98854.88
2023-05-20T02:58:36.747Z,98859.38
2023-05-20T03:01:04.879Z,98863.59
2023-05-20T03:03:33.801Z,98864.53
2023-05-20T03:06:01.163Z,98866.14
2023-05-20T03:08:28.792Z,98866.70
2023-05-20T03:10:57.399Z,98865.11
2023-05-20T03:13:24.834Z,98867.11
2023-05-20T03:15:52.276Z,98865.45
2023-05-20T03:18:19.969Z,98867.68
2023-05-20T03:20:47.594Z,98868.23
2023-05-20T03:23:16.109Z,98868.80
2023-05-20T03:25:43.540Z,98871.35
2023-05-20T03:28:11.197Z,98869.90
2023-05-20T03:30:38.789Z,98867.34
2023-05-20T03:33:07.495Z,98860.12
2023-05-20T03:35:35.415Z,98860.87
2023-05-20T03:38:03.274Z,98860.70
2023-05-20T03:40:31.042Z,98860.36
2023-05-20T03:42:59.149Z,98864.57
2023-05-20T03:45:27.045Z,98862.25
2023-05-20T03:48:14.422Z,98864.40
2023-05-20T03:50:43.528Z,98861.52
2023-05-20T03:53:11.600Z,98863.38
2023-05-20T03:55:41.208Z,98867.87
2023-05-20T03:58:09.385Z,98871.37
2023-05-20T04:00:37.606Z,98878.04
2023-05-20T04:03:06.180Z,98879.71
2023-05-20T04:05:34.186Z,98882.79
2023-05-20T04:08:02.322Z,98881.38
2023-05-20T04:10:31.423Z,98883.17
2023-05-20T04:12:58.894Z,98885.02
2023-05-20T04:15:26.627Z,98883.77
2023-05-20T04:17:56.108Z,98885.27
2023-05-20T04:20:24.704Z,98888.28
2023-05-20T04:22:55.427Z,98890.66
2023-05-20T04:25:23.127Z,98887.24
2023-05-20T04:27:51.293Z,98888.14
2023-05-20T04:30:18.914Z,98882.31
2023-05-20T04:32:46.622Z,98885.41
2023-05-20T04:35:14.928Z,98889.45
2023-05-20T04:37:51.092Z,98887.98
2023-05-20T04:40:19.453Z,98890.38
2023-05-20T04:42:47.189Z,98893.84
2023-05-20T04:45:15.706Z,98895.30
2023-05-20T04:47:44.785Z,98893.84
2023-05-20T04:50:12.487Z,98890.27
2023-05-20T04:52:46.493Z,98886.58
2023-05-20T04:55:13.964Z,98886.83
2023-05-20T04:57:42.602Z,98887.41
2023-05-20T05:00:12.050Z,98888.11
2023-05-20T05:02:39.739Z,98889.04
2023-05-20T05:05:08.168Z,98884.68
2023-05-20T05:07:36.152Z,98884.16
2023-05-20T05:10:03.642Z,98883.64
2023-05-20T05:12:32.504Z,98881.84
2023-05-20T05:15:00.202Z,98877.86
2023-05-20T05:17:29.339Z,98882.79
2023-05-20T05:19:58.450Z,98880.38
2023-05-20T05:22:26.933Z,98878.58
2023-05-20T05:24:56.223Z,98881.49
2023-05-20T05:27:23.851Z,98882.19
2023-05-20T05:29:51.327Z,98879.48
2023-05-20T05:32:19.225Z,98884.42
2023-05-20T05:34:46.995Z,98892.45
2023-05-20T05:37:14.460Z,98892.22
2023-05-20T05:39:42.802Z,98890.23
2023-05-20T05:42:10.375Z,98891.67
2023-05-20T05:44:38.865Z,98892.96
2023-05-20T05:47:07.647Z,98895.68
2023-05-20T05:49:35.557Z,98897.86
2023-05-20T05:52:03.776Z,98898.58
2023-05-20T05:54:31.534Z,98900.92
2023-05-20T05:56:59.130Z,98896.98
2023-05-20T05:59:28.040Z,98900.09
2023-05-20T06:01:55.836Z,98897.30
2023-05-20T06:04:23.899Z,98897.31
2023-05-20T06:06:53.769Z,98899.32
2023-05-20T06:09:21.714Z,98903.30
2023-05-20T06:11:49.421Z,98899.27
2023-05-20T06:14:17.183Z,98897.34
2023-05-20T06:16:45.716Z,98898.05
2023-05-20T06:19:13.687Z,98894.98
2023-05-20T06:21:41.238Z,98898.88
2023-05-20T06:24:08.903Z,98900.24
2023-05-20T06:26:37.468Z,98896.80
2023-05-20T06:29:05.997Z,98901.77
2023-05-20T06:31:34.487Z,98898.49
2023-05-20T06:34:03.462Z,98900.95
2023-05-20T06:36:33.588Z,98892.09
2023-05-20T06:39:01.736Z,98891.76
2023-05-20T06:41:30.478Z,98889.52
2023-05-20T06:43:58.260Z,98884.34
2023-05-20T06:46:51.347Z,98883.92
2023-05-20T06:49:19.084Z,98890.12
2023-05-20T06:51:46.598Z,98890.15
2023-05-20T06:54:17.931Z,98891.92
2023-05-20T06:56:46.053Z,98897.35
2023-05-20T06:59:15.857Z,98893.97
2023-05-20T07:01:44.022Z,98895.23
2023-05-20T07:04:12.675Z,98896.83
2023-05-20T07:06:40.332Z,98894.14
2023-05-20T07:09:09.159Z,98891.01
2023-05-20T07:11:37.126Z,98888.83
2023-05-20T07:14:04.606Z,98891.96
2023-05-20T07:16:35.458Z,98891.92
2023-05-20T07:19:04.946Z,98893.79
2023-05-20T07:21:33.594Z,98890.84
2023-05-20T07:24:21.831Z,98894.42
2023-05-20T07:26:49.516Z,98894.65
2023-05-20T07:29:17.175Z,98896.05
2023-05-20T07:31:45.306Z,98895.72
2023-05-20T07:34:13.253Z,98898.44
2023-05-20T07:36:42.096Z,98893.16
2023-05-20T07:39:14.433Z,98889.00
2023-05-20T07:41:45.577Z,98886.69
2023-05-20T07:44:14.132Z,98886.30
2023-05-20T07:46:45.965Z,98889.35
2023-05-20T07:49:13.638Z,98891.38
2023-05-20T07:51:42.121Z,98887.77
2023-05-20T07:54:11.418Z,98888.08
2023-05-20T07:56:39.040Z,98886.14
2023-05-20T07:59:08.155Z,98884.11
2023-05-20T08:01:42.531Z,98884.05
2023-05-20T08:04:11.595Z,98882.30
2023-05-20T08:06:40.198Z,98884.08
2023-05-20T08:09:12.877Z,98883.02
2023-05-20T08:11:46.569Z,98875.36
2023-05-20T08:14:15.559Z,98875.23
2023-05-20T08:16:44.227Z,98875.02
2023-05-20T08:19:12.483Z,98875.90
2023-05-20T08:21:40.297Z,98872.51
2023-05-20T08:24:08.516Z,98871.58
2023-05-20T08:26:36.619Z,98867.74
2023-05-20T08:29:04.271Z,98863.78
2023-05-20T08:31:32.040Z,98861.21
2023-05-20T08:34:01.073Z,98860.43
2023-05-20T08:36:29.144Z,98859.40
2023-05-20T08:38:57.665Z,98861.02
2023-05-20T08:41:26.138Z,98861.39
2023-05-20T08:43:53.799Z,98861.76
2023-05-20T08:46:21.779Z,98857.94
2023-05-20T08:48:49.620Z,98858.67
2023-05-20T08:51:24.093Z,98860.66
2023-05-20T08:53:56.094Z,98862.49
2023-05-20T08:56:29.333Z,98862.70
2023-05-20T08:58:58.552Z,98864.10
2023-05-20T09:01:26.495Z,98864.82
2023-05-20T09:03:54.361Z,98865.51
2023-05-20T09:06:22.252Z,98863.70
2023-05-20T09:08:51.540Z,98860.20
2023-05-20T09:11:20.166Z,98858.74
2023-05-20T09:13:48.127Z,98862.01
2023-05-20T09:16:16.457Z,98857.05
2023-05-20T09:18:44.172Z,98857.29
2023-05-20T09:21:12.067Z,98854.13
2023-05-20T09:23:39.730Z,98847.40
2023-05-20T09:26:07.911Z,98845.61
2023-05-20T09:28:38.640Z,98841.97
2023-05-20T09:31:06.956Z,98843.39
2023-05-20T09:33:36.016Z,98840.17
2023-05-20T09:36:10.391Z,98838.53
2023-05-20T09:38:40.053Z,98841.59
2023-05-20T09:41:15.819Z,98842.00
2023-05-20T09:43:44.689Z,98835.98
2023-05-20T09:46:12.370Z,98838.53
2023-05-20T09:48:40.383Z,98838.70
2023-05-20T09:51:09.509Z,98842.13
2023-05-20T09:53:36.994Z,98839.79
2023-05-20T09:56:04.854Z,98832.88
2023-05-20T09:58:32.893Z,98831.26
2023-05-20T10:01:00.413Z,98830.34
2023-05-20T10:03:29.629Z,98829.92
2023-05-20T10:06:28.755Z,98825.73
2023-05-20T10:09:25.615Z,98826.42
2023-05-20T10:12:15.430Z,98823.13
2023-05-20T10:14:52.243Z,98817.48
2023-05-20T10:18:02.114Z,98810.60
2023-05-20T10:20:29.887Z,98802.95
2023-05-20T10:22:58.569Z,98796.94
2023-05-20T10:25:28.548Z,98792.05
2023-05-20T10:28:09.316Z,98795.09
2023-05-20T10:30:37.888Z,98794.02
2023-05-20T10:33:07.504Z,98794.90
2023-05-20T10:35:35.708Z,98795.00
2023-05-20T10:38:16.025Z,98794.46
2023-05-20T10:40:43.641Z,98787.92
2023-05-20T10:43:13.105Z,98785.20
2023-05-20T10:45:54.126Z,98780.25
2023-05-20T10:48:28.854Z,98778.94
2023-05-20T10:51:04.415Z,98776.41
2023-05-20T10:53:42.768Z,98776.25
2023-05-20T10:56:23.064Z,98777.83
2023-05-20T10:58:52.189Z,98775.45
2023-05-20T11:01:24.426Z,98769.28
2023-05-20T11:03:51.965Z,98767.98
2023-05-20T11:06:19.553Z,98778.45
2023-05-20T11:08:47.823Z,98779.38
2023-05-20T11:11:15.821Z,98776.97
2023-05-20T11:13:43.682Z,98775.63
2023-05-20T11:16:11.261Z,98768.33
2023-05-20T11:18:39.424Z,98768.70
2023-05-20T11:21:08.326Z,98762.67
2023-05-20T11:23:36.826Z,98757.55
2023-05-20T11:26:06.082Z,98761.52
2023-05-20T11:28:33.860Z,98759.18
2023-05-20T11:31:01.824Z,98759.70
2023-05-20T11:33:31.019Z,98756.80
2023-05-20T11:35:58.681Z,98757.52
2023-05-20T11:38:26.261Z,98755.86
2023-05-20T11:40:55.180Z,98760.39
2023-05-20T11:43:24.083Z,98764.95
2023-05-20T11:45:56.761Z,98768.06
2023-05-20T11:48:24.627Z,98762.99
2023-05-20T11:50:54.319Z,98762.96
2023-05-20T11:53:22.931Z,98769.93
2023-05-20T11:55:58.536Z,98779.57
2023-05-20T11:58:28.356Z,98782.62
2023-05-20T12:01:05.715Z,98789.19
2023-05-20T12:03:41.687Z,98790.80
2023-05-20T12:06:12.746Z,98787.52
2023-05-20T12:08:41.360Z,98779.36
2023-05-20T12:11:08.889Z,98769.16
2023-05-20T12:13:36.331Z,98761.21
2023-05-20T12:16:06.252Z,98758.30
2023-05-20T12:18:33.931Z,98754.63
2023-05-20T12:21:02.597Z,98747.72
2023-05-20T12:23:34.398Z,98747.35
2023-05-20T12:26:03.196Z,98743.33
2023-05-20T12:28:32.608Z,98735.91
2023-05-20T12:31:00.452Z,98737.89
2023-05-20T12:33:28.775Z,98734.58
2023-05-20T12:35:56.204Z,98734.95
2023-05-20T12:38:23.675Z,98736.02
2023-05-20T12:40:51.644Z,98735.28
2023-05-20T12:43:19.286Z,98728.13
2023-05-20T12:45:47.380Z,98728.09
2023-05-20T12:48:14.917Z,98728.00
2023-05-20T12:50:44.753Z,98726.67
2023-05-20T12:53:12.227Z,98720.15
2023-05-20T12:55:40.768Z,98717.00
2023-05-20T12:58:10.908Z,98714.14
2023-05-20T13:00:38.695Z,98706.67
2023-05-20T13:03:06.882Z,98700.97
2023-05-20T13:05:35.534Z,98694.78
2023-05-20T13:08:03.064Z,98690.40
2023-05-20T13:10:30.649Z,98682.84
2023-05-20T13:12:58.258Z,98679.86
2023-05-20T13:15:26.179Z,98675.98
2023-05-20T13:17:54.758Z,98674.22
2023-05-20T13:20:23.396Z,98671.95
2023-05-20T13:22:51.316Z,98669.31
2023-05-20T13:25:18.768Z,98666.29
2023-05-20T13:27:46.619Z,98669.45
2023-05-20T13:30:15.234Z,98671.48
2023-05-20T13:32:45.071Z,98669.41
2023-05-20T13:35:17.137Z,98669.29
2023-05-20T13:37:45.167Z,98666.45
2023-05-20T13:40:13.303Z,98664.21
2023-05-20T13:42:40.811Z,98663.36
2023-05-20T13:45:08.752Z,98664.48
2023-05-20T13:47:36.519Z,98659.35
2023-05-20T13:50:04.495Z,98655.72
2023-05-20T13:52:31.943Z,98653.55
2023-05-20T13:54:59.495Z,98650.27
2023-05-20T13:57:26.965Z,98648.14
2023-05-20T13:59:54.855Z,98649.25
2023-05-20T14:02:22.436Z,98647.71
2023-05-20T14:04:50.047Z,98649.77
2023-05-20T14:07:17.904Z,98653.67
2023-05-20T14:09:45.518Z,98650.14
2023-05-20T14:12:13.097Z,98649.38
2023-05-20T14:14:40.617Z,98650.53
2023-05-20T14:17:08.101Z,98651.00
2023-05-20T14:19:35.830Z,98650.59
2023-05-20T14:22:03.626Z,98648.84
2023-05-20T14:24:31.243Z,98643.46
2023-05-20T14:26:58.879Z,98643.95
2023-05-20T14:29:26.487Z,98641.77
2023-05-20T14:31:54.205Z,98641.66
2023-05-20T14:34:21.721Z,98644.30
2023-05-20T14:36:49.240Z,98643.52
2023-05-20T14:39:17.418Z,98643.50
2023-05-20T14:41:47.134Z,98640.73
2023-05-20T14:44:14.570Z,98639.11
2023-05-20T14:46:42.012Z,98638.77
2023-05-20T14:49:09.547Z,98638.43
2023-05-20T14:51:37.169Z,98636.77
2023-05-20T14:54:06.388Z,98637.21
2023-05-20T14:56:34.240Z,98634.69
2023-05-20T14:59:02.109Z,98634.63
2023-05-20T15:01:30.076Z,98632.41
2023-05-20T15:03:57.772Z,98627.48
2023-05-20T15:06:25.727Z,98624.73
2023-05-20T15:08:54.011Z,98620.73
2023-05-20T15:11:22.847Z,98617.33
2023-05-20T15:13:51.887Z,98616.14
2023-05-20T15:16:24.694Z,98613.21
2023-05-20T15:18:52.556Z,98618.28
2023-05-20T15:21:20.324Z,98617.54
2023-05-20T15:23:48.156Z,98616.42
2023-05-20T15:26:16.455Z,98616.79
2023-05-20T15:28:44.677Z,98609.48
2023-05-20T15:31:12.934Z,98607.61
2023-05-20T15:33:40.612Z,98604.13
2023-05-20T15:36:08.361Z,98602.09
2023-05-20T15:38:36.015Z,98598.65
2023-05-20T15:41:03.773Z,98597.82
2023-05-20T15:43:31.613Z,98594.98
2023-05-20T15:45:59.468Z,98593.21
2023-05-20T15:48:27.000Z,98590.11
2023-05-20T15:50:54.712Z,98587.73
2023-05-20T15:53:22.296Z,98588.04
2023-05-20T15:55:49.811Z,98590.17
2023-05-20T15:58:17.534Z,98588.84
2023-05-20T16:00:45.052Z,98586.21
2023-05-20T16:03:12.939Z,98586.91
2023-05-20T16:05:41.067Z,98586.09
2023-05-20T16:08:08.990Z,98585.63
2023-05-20T16:10:36.800Z,98586.09
2023-05-20T16:13:04.527Z,98586.95
2023-05-20T16:15:35.939Z,98588.15
2023-05-20T16:18:04.222Z,98589.17
2023-05-20T16:20:31.908Z,98586.65
2023-05-20T16:22:59.404Z,98583.19
2023-05-20T16:25:27.277Z,98585.54
2023-05-20T16:27:54.865Z,98590.70
2023-05-20T16:30:22.338Z,98590.55
2023-05-20T16:32:49.827Z,98588.36
2023-05-20T16:35:17.699Z,98585.77
2023-05-20T16:37:45.680Z,98587.41
2023-05-20T16:40:13.607Z,98584.98
2023-05-20T16:42:42.623Z,98586.66
2023-05-20T16:45:11.195Z,98588.47
2023-05-20T16:47:38.766Z,98588.13
2023-05-20T16:50:06.982Z,98583.60
2023-05-20T16:52:35.419Z,98579.40
2023-05-20T16:55:05.327Z,98577.98
2023-05-20T16:57:32.980Z,98576.16
2023-05-20T17:00:00.575Z,98576.91
2023-05-20T17:02:28.147Z,98577.98
2023-05-20T17:04:55.795Z,98576.91
2023-05-20T17:07:23.743Z,98577.26
2023-05-20T17:09:51.841Z,98574.97
2023-05-20T17:12:20.339Z,98572.25
2023-05-20T17:14:48.171Z,98574.43
2023-05-20T17:17:16.829Z,98577.87
2023-05-20T17:19:45.235Z,98578.89
2023-05-20T17:22:12.958Z,98579.98
2023-05-20T17:24:40.574Z,98579.09
2023-05-20T17:27:08.181Z,98576.36
2023-05-20T17:29:35.735Z,98579.50
2023-05-20T17:32:03.245Z,98579.29
2023-05-20T17:34:30.759Z,98580.27
2023-05-20T17:36:58.544Z,98582.24
2023-05-20T17:39:25.974Z,98586.02
2023-05-20T17:41:53.456Z,98587.52
2023-05-20T17:44:20.928Z,98586.67
2023-05-20T17:46:49.088Z,98584.56
2023-05-20T17:49:17.307Z,98577.13
2023-05-20T17:51:46.366Z,98581.86
2023-05-20T17:54:14.206Z,98580.02
2023-05-20T17:56:43.919Z,98579.52
2023-05-20T17:59:11.928Z,98580.74
2023-05-20T18:01:39.562Z,98578.11
2023-05-20T18:04:07.036Z,98574.64
2023-05-20T18:06:35.016Z,98578.11
2023-05-20T18:09:04.934Z,98582.67
2023-05-20T18:11:33.863Z,98577.39
2023-05-20T18:14:02.067Z,98580.73
2023-05-20T18:16:30.315Z,98584.30
2023-05-20T18:18:58.193Z,98586.48
2023-05-20T18:21:26.478Z,98585.90
2023-05-20T18:23:54.428Z,98590.92
2023-05-20T18:26:22.033Z,98592.21
2023-05-20T18:28:50.452Z,98595.37
2023-05-20T18:31:17.942Z,98592.98
2023-05-20T18:33:45.680Z,98593.94
2023-05-20T18:36:13.360Z,98592.84
2023-05-20T18:38:41.919Z,98595.41
2023-05-20T18:41:09.806Z,98594.58
2023-05-20T18:43:37.447Z,98598.13
2023-05-20T18:46:05.105Z,98595.05
2023-05-20T18:48:32.816Z,98597.50
2023-05-20T18:51:00.472Z,98598.09
2023-05-20T18:53:28.214Z,98602.95
2023-05-20T18:55:57.134Z,98600.80
2023-05-20T18:58:24.561Z,98599.55
2023-05-20T19:00:52.157Z,98603.73
2023-05-20T19:03:20.648Z,98601.54
2023-05-20T19:05:49.142Z,98603.57
2023-05-20T19:08:18.550Z,98603.74
2023-05-20T19:10:46.155Z,98603.22
2023-05-20T19:13:13.652Z,98606.31
2023-05-20T19:15:41.354Z,98603.83
2023-05-20T19:18:09.050Z,98602.56
2023-05-20T19:20:36.734Z,98599.37
2023-05-20T19:23:04.285Z,98601.45
2023-05-20T19:25:32.853Z,98604.41
2023-05-20T19:28:00.450Z,98608.77
2023-05-20T19:30:28.204Z,98607.34
2023-05-20T19:32:55.824Z,98613.52
2023-05-20T19:35:24.961Z,98611.88
2023-05-20T19:37:53.321Z,98612.48
2023-05-20T19:40:21.472Z,98610.84
2023-05-20T19:42:50.120Z,98613.20
2023-05-20T19:45:19.123Z,98615.41
2023-05-20T19:47:46.909Z,98614.70
2023-05-20T19:50:15.073Z,98616.16
2023-05-20T19:52:42.675Z,98612.72
2023-05-20T19:55:10.820Z,98609.41
2023-05-20T19:57:38.508Z,98603.85
2023-05-20T20:00:07.676Z,98609.50
2023-05-20T20:02:40.354Z,98614.00
2023-05-20T20:05:08.473Z,98617.99
2023-05-20T20:07:36.311Z,98616.73
2023-05-20T20:10:04.276Z,98611.32
2023-05-20T20:12:32.036Z,98611.88
2023-05-20T20:14:59.450Z,98609.64
2023-05-20T20:17:27.060Z,98607.47
2023-05-20T20:19:55.596Z,98608.92
2023-05-20T20:22:23.186Z,98609.54
2023-05-20T20:24:50.815Z,98611.00
2023-05-20T20:27:19.665Z,98615.33
2023-05-20T20:29:47.117Z,98612.13
2023-05-20T20:32:14.677Z,98612.88
2023-05-20T20:34:43.288Z,98610.86
2023-05-20T20:37:15.098Z,98610.48
2023-05-20T20:39:47.314Z,98606.50
2023-05-20T20:42:15.153Z,98602.20
2023-05-20T20:44:43.593Z,98604.94
2023-05-20T20:47:14.947Z,98605.63
2023-05-20T20:49:42.508Z,98609.06
2023-05-20T20:52:10.538Z,98609.67
2023-05-20T20:54:42.068Z,98609.15
2023-05-20T20:57:11.790Z,98612.56
2023-05-20T20:59:40.100Z,98611.16
2023-05-20T21:02:07.563Z,98606.33
2023-05-20T21:04:35.176Z,98608.84
2023-05-20T21:07:02.836Z,98605.02
2023-05-20T21:09:30.280Z,98611.16
2023-05-20T21:11:57.792Z,98612.11
2023-05-20T21:14:25.704Z,98612.31
2023-05-20T21:16:53.187Z,98610.34
2023-05-20T21:19:20.834Z,98604.65
2023-05-20T21:21:48.385Z,98601.59
2023-05-20T21:24:15.914Z,98595.83
2023-05-20T21:26:43.591Z,98596.34
2023-05-20T21:29:12.471Z,98589.08
2023-05-20T21:31:39.912Z,98592.66
2023-05-20T21:34:07.677Z,98591.98
2023-05-20T21:36:35.095Z,98588.94
2023-05-20T21:39:02.566Z,98587.11
2023-05-20T21:41:30.174Z,98589.83
2023-05-20T21:43:58.077Z,98590.38
2023-05-20T21:46:25.851Z,98586.18
2023-05-20T21:48:53.421Z,98587.63
2023-05-20T21:51:20.912Z,98586.19
2023-05-20T21:53:48.352Z,98586.02
2023-05-20T21:56:16.141Z,98579.69
2023-05-20T21:58:43.564Z,98579.30
2023-05-20T22:01:11.115Z,98581.14
2023-05-20T22:03:40.399Z,98586.93
2023-05-20T22:06:08.052Z,98584.52
2023-05-20T22:08:35.482Z,98589.77
2023-05-20T22:11:07.768Z,98589.09
2023-05-20T22:13:35.979Z,98586.33
2023-05-20T22:16:05.338Z,98583.08
2023-05-20T22:18:33.064Z,98585.24
2023-05-20T22:21:01.567Z,98580.39
2023-05-20T22:23:29.289Z,98579.79
2023-05-20T22:25:56.976Z,98580.94
2023-05-20T22:28:26.425Z,98580.54
2023-05-20T22:30:53.985Z,98581.99
2023-05-20T22:33:23.318Z,98584.00
2023-05-20T22:35:51.706Z,98583.11
2023-05-20T22:38:19.715Z,98580.55
2023-05-20T22:40:47.335Z,98578.58
2023-05-20T22:43:16.859Z,98579.71
2023-05-20T22:45:44.506Z,98579.66
2023-05-20T22:48:12.978Z,98582.58
2023-05-20T22:50:40.572Z,98584.23
2023-05-20T22:53:08.188Z,98585.67
2023-05-20T22:55:39.181Z,98585.33
2023-05-20T22:58:08.231Z,98587.16
2023-05-20T23:00:36.022Z,98586.96
2023-05-20T23:03:03.549Z,98586.27
2023-05-20T23:05:31.879Z,98582.64
2023-05-20T23:07:59.544Z,98583.52
2023-05-20T23:10:27.238Z,98583.56
2023-05-20T23:12:54.701Z,98585.89
2023-05-20T23:15:25.501Z,98590.61
2023-05-20T23:17:53.331Z,98588.63
2023-05-20T23:20:22.839Z,98587.95
2023-05-20T23:22:50.519Z,98590.67
2023-05-20T23:25:18.281Z,98587.64
2023-05-20T23:27:46.418Z,98585.27
2023-05-20T23:30:14.477Z,98586.39
2023-05-20T23:32:42.012Z,98588.88
2023-05-20T23:35:12.028Z,98591.41
2023-05-20T23:37:41.148Z,98587.27
2023-05-20T23:40:12.128Z,98586.21
2023-05-20T23:42:40.313Z,98585.27
2023-05-20T23:45:08.307Z,98582.93
2023-05-20T23:47:36.833Z,98582.02
2023-05-20T23:50:04.627Z,98582.19
2023-05-20T23:52:32.237Z,98579.33
2023-05-20T23:55:01.181Z,98576.98
2023-05-20T23:57:28.970Z,98582.02
2023-05-20T23:59:56.530Z,98576.42
